Etusivu
METAR-TAF:

METAR-TAF

Lentoasemat :

Bahrain, Bahrain

Bahrainin kansainvälinen lentoasema

Leveyspiiri: 26-16N, Pituuspiiri: 050-39E, korkeus merenpinnasta: 2 m

Tämänhetkinen sää

Tämä raportti tehtiin 43 minuuttia sitten, kello 19.30 UTC
Tuuli 13 kn luoteesta
Lämpötila 31°C
Kosteus 52%
Ilmanpaine 1007 hPa
Näkyvyys 10 km tai enemmän
ei pilviä alle 1500 m:ssä eikä cumulonimbus-pilviä

METAR: OBBI 251930Z 31013KT CAVOK 31/20 Q1007 NOSIG

Aika: 23:13 (20:13 UTC)

Sääennuste

Tämä raportti tehtiin 3 tuntia ja 13 minuuttia sitten, kello 17.00 UTC
Ennuste voimassa 25. päivästä klo 18 UTC - 27. päivään klo 00 UTC
Tuuli 18 kn pohjoisen/luoteesta
Näkyvyys 10 km tai enemmän
ei pilviä alle 1500 m:ssä eikä cumulonimbus-pilviä
Tulossa
26. päivästä klo 15 UTC - 26. päivään klo 17 UTC
Tuuli 8 kn luoteesta

TAF: OBBI 251700Z 2518/2700 33018KT CAVOK BECMG 2615/2617 32008KT

Säähavainnot ja -ennusteet yli 4000 lentoasemalta (METAR- ja TAF-raportit).

Käytössä olevat sääasemat on merkitty karttaan keltaisilla ja punaisilla pisteillä.

Aseta hiiri pisteen päälle nähdäksesi sääaseman nimen.

Klikkaa sitten nähdäksesi säähavainnot ja -ennusteet.

Kartan vaihtaminen: klikkaa mustalla rastilla varustettuja vihreitä pisteitä, niin voit zoomata sisään; viivalla varustettua vihreää pistettä, niin voit zoomata ulos tai vihreitä nuolia, niin pääset viereisille kartoille.


METAR-TAF: